createdAt,value
2018-09-04T00:00:35.589Z,94.03
2018-09-04T00:01:45.713Z,93.51
2018-09-04T00:02:55.614Z,94.27
2018-09-04T00:04:05.242Z,95.22
2018-09-04T00:05:15.368Z,95.51
2018-09-04T00:06:25.226Z,95.41
2018-09-04T00:07:35.081Z,95.03
2018-09-04T00:08:45.206Z,95.7
2018-09-04T00:09:54.833Z,96.17
2018-09-04T00:11:04.960Z,95.79
2018-09-04T00:12:15.080Z,96.17
2018-09-04T00:13:24.933Z,96.27
2018-09-04T00:14:34.832Z,96.7
2018-09-04T00:15:44.965Z,96.32
2018-09-04T00:16:55.094Z,95.75
2018-09-04T00:18:04.671Z,96.03
2018-09-04T00:19:14.797Z,96.41
2018-09-04T00:20:24.928Z,95.94
2018-09-04T00:21:34.826Z,95.37
2018-09-04T00:22:44.400Z,94.79
2018-09-04T00:23:54.251Z,93.93
2018-09-04T00:25:03.833Z,94.7
2018-09-04T00:26:13.681Z,94.03
2018-09-04T00:27:23.307Z,93.84
2018-09-04T00:28:33.159Z,93.46
2018-09-04T00:29:43.292Z,93.93
2018-09-04T00:30:53.140Z,94.12
2018-09-04T00:32:02.995Z,94.12
2018-09-04T00:33:13.176Z,94.93
2018-09-04T00:34:23.402Z,94.65
2018-09-04T00:35:33.602Z,93.88
2018-09-04T00:36:43.451Z,93.98
2018-09-04T00:37:53.583Z,94.84
2018-09-04T00:39:03.488Z,94.74
2018-09-04T00:40:13.066Z,94.46
2018-09-04T00:41:22.367Z,95.7
2018-09-04T00:42:32.217Z,95.7
2018-09-04T00:43:42.349Z,95.98
2018-09-04T00:44:53.936Z,97.51
2018-09-04T00:46:04.089Z,98.56
2018-09-04T00:47:13.939Z,99.7
2018-09-04T00:48:24.064Z,99.99
2018-09-04T00:49:33.916Z,99.99
2018-09-04T00:50:43.821Z,99.08
2018-09-04T00:51:53.126Z,99.27
2018-09-04T00:53:03.251Z,99.27
2018-09-04T00:54:12.831Z,98.7
2018-09-04T00:55:22.681Z,98.7
2018-09-04T00:56:32.586Z,98.42
2018-09-04T00:57:42.436Z,98.22
2018-09-04T00:58:52.053Z,98.22
2018-09-04T01:00:02.335Z,98.32
2018-09-04T01:01:12.189Z,97.94
2018-09-04T01:02:22.096Z,97.37
2018-09-04T01:03:31.950Z,97.08
2018-09-04T01:04:41.801Z,96.8
2018-09-04T01:05:51.375Z,96.89
2018-09-04T01:07:01.242Z,97.37
2018-09-04T01:08:11.416Z,97.37
2018-09-04T01:09:21.278Z,97.37
2018-09-04T01:10:30.854Z,97.37
2018-09-04T01:11:40.984Z,97.85
2018-09-04T01:12:50.835Z,97.27
2018-09-04T01:14:01.012Z,98.32
2018-09-04T01:15:11.152Z,97.85
2018-09-04T01:16:21.007Z,97.27
2018-09-04T01:17:30.859Z,98.03
2018-09-04T01:18:40.704Z,98.03
2018-09-04T01:19:50.895Z,97.85
2018-09-04T01:21:00.749Z,97.94
2018-09-04T01:22:10.872Z,98.8
2018-09-04T01:23:20.726Z,97.66
2018-09-04T01:24:30.576Z,97.56
2018-09-04T01:25:40.703Z,97.56
2018-09-04T01:26:50.828Z,97.08
2018-09-04T01:28:00.957Z,97.56
2018-09-04T01:29:10.531Z,97.13
2018-09-04T01:30:20.114Z,96.84
2018-09-04T01:31:30.237Z,96.17
2018-09-04T01:32:40.105Z,96.17
2018-09-04T01:33:50.231Z,96.36
2018-09-04T01:35:00.355Z,96.17
2018-09-04T01:36:10.203Z,96.36
2018-09-04T01:37:20.381Z,96.17
2018-09-04T01:38:30.511Z,96.17
2018-09-04T01:39:40.361Z,96.12
2018-09-04T01:40:50.490Z,97.27
2018-09-04T01:42:00.614Z,98.03
2018-09-04T01:43:10.241Z,97.46
2018-09-04T01:44:20.092Z,98.03
2018-09-04T01:45:29.953Z,97.56
2018-09-04T01:46:39.816Z,97.65
2018-09-04T01:47:49.663Z,97.56
2018-09-04T01:48:59.578Z,97.84
2018-09-04T01:50:09.701Z,98.51
2018-09-04T01:51:19.273Z,99.18
2018-09-04T01:52:29.122Z,99.27
2018-09-04T01:53:39.242Z,98.7
2018-09-04T01:54:49.419Z,98.79
2018-09-04T01:55:59.553Z,99.37
2018-09-04T01:57:09.685Z,98.99
2018-09-04T01:58:19.540Z,99.32
2018-09-04T01:59:29.670Z,98.7
2018-09-04T02:00:39.521Z,98.32
2018-09-04T02:01:49.643Z,97.79
2018-09-04T02:02:59.768Z,97.41
2018-09-04T02:04:09.904Z,97.41
2018-09-04T02:05:20.035Z,97.99
2018-09-04T02:06:29.935Z,97.89
2018-09-04T02:07:39.784Z,99.13
2018-09-04T02:08:49.908Z,99.99
2018-09-04T02:09:59.767Z,99.99
2018-09-04T02:11:09.076Z,99.99
2018-09-04T02:12:21.557Z,99.99
2018-09-04T02:13:31.681Z,99.99
2018-09-04T02:14:41.536Z,99.99
2018-09-04T02:15:51.666Z,99.99
2018-09-04T02:17:01.795Z,99.99
2018-09-04T02:18:11.690Z,99.99
2018-09-04T02:19:21.813Z,99.99
2018-09-04T02:20:31.666Z,99.99
2018-09-04T02:21:41.786Z,99.99
2018-09-04T02:22:51.356Z,99.99
2018-09-04T02:24:01.466Z,99.99
2018-09-04T02:25:11.592Z,99.99
2018-09-04T02:26:21.716Z,99.99
2018-09-04T02:27:31.570Z,99.99
2018-09-04T02:28:41.417Z,99.99
2018-09-04T02:29:51.318Z,99.99
2018-09-04T02:31:01.470Z,99.99
2018-09-04T02:32:11.591Z,99.99
2018-09-04T02:33:21.455Z,99.99
2018-09-04T02:34:31.334Z,99.99
2018-09-04T02:35:41.485Z,99.99
2018-09-04T02:36:51.371Z,99.99
2018-09-04T02:38:01.494Z,99.99
2018-09-04T02:39:11.347Z,99.99
2018-09-04T02:40:21.206Z,99.99
2018-09-04T02:41:31.123Z,99.99
2018-09-04T02:42:40.975Z,99.99
2018-09-04T02:43:50.827Z,99.99
2018-09-04T02:45:00.947Z,99.99
2018-09-04T02:46:10.815Z,99.99
2018-09-04T02:47:20.726Z,99.99
2018-09-04T02:48:30.303Z,99.99
2018-09-04T02:49:40.440Z,99.99
2018-09-04T02:50:50.296Z,99.99
2018-09-04T02:51:59.875Z,99.99
2018-09-04T02:53:09.781Z,99.99
2018-09-04T02:54:19.903Z,99.99
2018-09-04T02:55:29.752Z,99.99
2018-09-04T02:56:39.612Z,99.99
2018-09-04T02:57:49.465Z,99.99
2018-09-04T02:58:59.643Z,99.99
2018-09-04T03:00:09.500Z,99.99
2018-09-04T03:01:19.648Z,99.99
2018-09-04T03:02:29.777Z,99.99
2018-09-04T03:03:39.901Z,99.99
2018-09-04T03:04:50.073Z,99.99
2018-09-04T03:06:00.194Z,99.99
2018-09-04T03:07:10.053Z,99.99
2018-09-04T03:08:20.182Z,99.99
2018-09-04T03:09:30.308Z,99.99
2018-09-04T03:10:40.485Z,99.99
2018-09-04T03:11:50.341Z,99.99
2018-09-04T03:13:00.466Z,99.99
2018-09-04T03:14:10.589Z,99.99
2018-09-04T03:15:20.448Z,99.99
2018-09-04T03:16:30.578Z,99.99
2018-09-04T03:17:40.701Z,99.99
2018-09-04T03:18:50.838Z,99.99
2018-09-04T03:20:00.978Z,99.99
2018-09-04T03:21:11.152Z,99.99
2018-09-04T03:22:21.058Z,99.99
2018-09-04T03:23:31.184Z,99.99
2018-09-04T03:24:40.768Z,99.99
2018-09-04T03:25:50.893Z,99.99
2018-09-04T03:27:01.033Z,99.99
2018-09-04T03:28:10.661Z,99.99
2018-09-04T03:29:20.797Z,99.99
2018-09-04T03:30:30.427Z,99.99
2018-09-04T03:31:40.553Z,99.99
2018-09-04T03:32:50.681Z,99.99
2018-09-04T03:34:00.809Z,99.99
2018-09-04T03:35:10.664Z,99.99
2018-09-04T03:36:20.788Z,99.99
2018-09-04T03:37:30.367Z,99.99
2018-09-04T03:38:39.671Z,99.99
2018-09-04T03:39:49.851Z,99.99
2018-09-04T03:40:59.990Z,99.99
2018-09-04T03:42:09.839Z,99.99
2018-09-04T03:43:20.130Z,99.99
2018-09-04T03:44:30.406Z,99.99
2018-09-04T03:45:40.342Z,99.99
2018-09-04T03:46:50.194Z,99.99
2018-09-04T03:48:00.317Z,99.99
2018-09-04T03:49:10.455Z,99.99
2018-09-04T03:50:20.301Z,99.99
2018-09-04T03:51:30.206Z,99.99
2018-09-04T03:52:39.779Z,99.99
2018-09-04T03:53:49.901Z,99.99
2018-09-04T03:54:59.769Z,99.99
2018-09-04T03:56:08.791Z,99.99
2018-09-04T03:57:18.695Z,99.99
2018-09-04T03:58:28.277Z,99.99
2018-09-04T03:59:38.130Z,99.99
2018-09-04T04:00:47.706Z,99.99
2018-09-04T04:01:57.557Z,99.99
2018-09-04T04:03:07.686Z,99.99
2018-09-04T04:04:17.262Z,99.99
2018-09-04T04:05:27.384Z,99.99
2018-09-04T04:06:37.513Z,99.99
2018-09-04T04:07:47.091Z,99.99
2018-09-04T04:08:56.991Z,99.99
2018-09-04T04:10:06.569Z,99.99
2018-09-04T04:11:16.693Z,99.99
2018-09-04T04:12:26.817Z,99.99
2018-09-04T04:13:36.956Z,99.99
2018-09-04T04:14:46.855Z,99.99
2018-09-04T04:15:56.714Z,99.99
2018-09-04T04:17:06.852Z,99.99
2018-09-04T04:18:16.982Z,99.99
2018-09-04T04:19:26.829Z,99.99
2018-09-04T04:20:37.007Z,99.99
2018-09-04T04:21:47.136Z,99.99
2018-09-04T04:22:56.711Z,99.99
2018-09-04T04:24:06.967Z,99.99
2018-09-04T04:25:16.548Z,99.99
2018-09-04T04:26:26.727Z,99.99
2018-09-04T04:27:36.594Z,99.99
2018-09-04T04:28:46.720Z,99.99
2018-09-04T04:29:56.573Z,99.99
2018-09-04T04:31:06.715Z,99.99
2018-09-04T04:32:16.612Z,99.99
2018-09-04T04:33:26.739Z,99.99
2018-09-04T04:34:36.589Z,99.99
2018-09-04T04:35:46.449Z,99.99
2018-09-04T04:36:56.295Z,99.99
2018-09-04T04:38:06.429Z,99.99
2018-09-04T04:39:16.570Z,99.99
2018-09-04T04:40:26.152Z,99.99
2018-09-04T04:41:36.287Z,99.99
2018-09-04T04:42:46.147Z,99.99
2018-09-04T04:43:56.046Z,99.99
2018-09-04T04:45:05.903Z,99.99
2018-09-04T04:46:15.528Z,99.99
2018-09-04T04:47:25.663Z,99.99
2018-09-04T04:48:35.513Z,99.99
2018-09-04T04:49:45.641Z,99.99
2018-09-04T04:50:55.489Z,99.99
2018-09-04T04:52:05.068Z,99.99
2018-09-04T04:53:15.192Z,99.99
2018-09-04T04:54:25.043Z,99.99
2018-09-04T04:55:34.670Z,99.99
2018-09-04T04:56:44.817Z,99.99
2018-09-04T04:57:54.945Z,99.99
2018-09-04T04:59:05.075Z,99.99
2018-09-04T05:00:15.301Z,99.99
2018-09-04T05:01:25.717Z,99.99
2018-09-04T05:02:35.300Z,99.99
2018-09-04T05:03:45.425Z,99.99
2018-09-04T05:04:55.556Z,99.99
2018-09-04T05:06:05.420Z,99.99
2018-09-04T05:07:15.552Z,99.99
2018-09-04T05:08:24.853Z,99.99
2018-09-04T05:09:35.017Z,99.99
2018-09-04T05:10:44.595Z,99.99
2018-09-04T05:11:53.624Z,99.99
2018-09-04T05:13:03.799Z,99.99
2018-09-04T05:14:13.930Z,99.99
2018-09-04T05:15:24.052Z,99.99
2018-09-04T05:16:33.622Z,99.99
2018-09-04T05:17:43.748Z,99.99
2018-09-04T05:18:53.374Z,99.99
2018-09-04T05:20:03.496Z,99.99
2018-09-04T05:21:13.347Z,99.99
2018-09-04T05:22:23.194Z,99.99
2018-09-04T05:23:33.465Z,99.99
2018-09-04T05:24:43.647Z,99.99
2018-09-04T05:25:53.518Z,99.99
2018-09-04T05:27:03.652Z,99.99
2018-09-04T05:28:13.506Z,99.99
2018-09-04T05:29:23.293Z,99.99
2018-09-04T05:30:33.814Z,99.99
2018-09-04T05:31:43.661Z,99.99
2018-09-04T05:32:53.518Z,99.99
2018-09-04T05:34:03.653Z,99.99
2018-09-04T05:35:13.507Z,99.99
2018-09-04T05:36:23.139Z,99.99
2018-09-04T05:37:32.996Z,99.99
2018-09-04T05:38:42.871Z,99.99
2018-09-04T05:39:53.017Z,99.99
2018-09-04T05:41:02.867Z,99.99
2018-09-04T05:42:13.042Z,99.99
2018-09-04T05:43:22.894Z,99.99
2018-09-04T05:44:33.029Z,99.99
2018-09-04T05:45:42.883Z,99.99
2018-09-04T05:46:52.737Z,99.99
2018-09-04T05:48:02.641Z,99.99
2018-09-04T05:49:12.768Z,99.99
2018-09-04T05:50:22.901Z,99.99
2018-09-04T05:51:33.035Z,99.99
2018-09-04T05:52:42.884Z,99.99
2018-09-04T05:53:52.944Z,99.99
2018-09-04T05:55:03.117Z,99.99
2018-09-04T05:56:13.112Z,99.99
2018-09-04T05:57:22.416Z,99.99
2018-09-04T05:58:32.539Z,99.99
2018-09-04T05:59:42.714Z,99.99
2018-09-04T06:00:52.838Z,99.99
2018-09-04T06:02:02.689Z,99.99
2018-09-04T06:03:12.319Z,99.99
2018-09-04T06:04:22.450Z,99.99
2018-09-04T06:05:32.304Z,99.99
2018-09-04T06:06:42.155Z,99.99
2018-09-04T06:07:52.013Z,99.99
2018-09-04T06:09:02.136Z,99.99
2018-09-04T06:10:11.995Z,99.99
2018-09-04T06:11:21.914Z,99.99
2018-09-04T06:12:32.044Z,99.99
2018-09-04T06:13:42.090Z,99.99
2018-09-04T06:14:52.306Z,99.99
2018-09-04T06:16:02.179Z,99.99
2018-09-04T06:17:11.814Z,99.99
2018-09-04T06:18:21.943Z,99.99
2018-09-04T06:19:31.806Z,99.99
2018-09-04T06:20:41.654Z,99.99
2018-09-04T06:21:51.238Z,99.99
2018-09-04T06:23:00.886Z,99.99
2018-09-04T06:24:10.460Z,99.99
2018-09-04T06:25:20.310Z,99.99
2018-09-04T06:26:30.166Z,99.99
2018-09-04T06:27:39.753Z,99.99
2018-09-04T06:28:49.925Z,99.99
2018-09-04T06:30:00.049Z,99.99
2018-09-04T06:31:10.248Z,99.99
2018-09-04T06:32:20.376Z,99.99
2018-09-04T06:33:30.497Z,99.99
2018-09-04T06:34:40.727Z,99.99
2018-09-04T06:35:50.573Z,99.99
2018-09-04T06:37:00.155Z,99.99
2018-09-04T06:38:08.906Z,99.99
2018-09-04T06:39:18.765Z,99.99
2018-09-04T06:40:28.826Z,99.99
2018-09-04T06:41:38.674Z,99.99
2018-09-04T06:43:11.002Z,99.99
2018-09-04T06:44:20.639Z,99.99
2018-09-04T06:45:31.078Z,99.99
2018-09-04T06:46:41.715Z,99.99
2018-09-04T06:47:51.891Z,99.99
2018-09-04T06:49:01.743Z,99.99
2018-09-04T06:50:11.318Z,99.99
2018-09-04T06:51:21.215Z,99.99
2018-09-04T06:52:30.792Z,99.99
2018-09-04T06:53:40.368Z,99.99
2018-09-04T06:54:50.498Z,99.99
2018-09-04T06:56:00.623Z,99.99
2018-09-04T06:57:10.797Z,99.99
2018-09-04T06:58:20.098Z,99.99
2018-09-04T06:59:29.950Z,99.99
2018-09-04T07:00:40.069Z,99.99
2018-09-04T07:01:50.199Z,99.99
2018-09-04T07:03:00.372Z,99.99
2018-09-04T07:04:09.716Z,99.99
2018-09-04T07:05:19.294Z,99.99
2018-09-04T07:06:29.148Z,99.99
2018-09-04T07:07:39.274Z,99.99
2018-09-04T07:08:49.126Z,99.99
2018-09-04T07:09:59.266Z,99.99
2018-09-04T07:11:08.566Z,99.99
2018-09-04T07:12:18.692Z,99.99
2018-09-04T07:13:28.268Z,99.99
2018-09-04T07:14:38.389Z,99.99
2018-09-04T07:15:48.241Z,99.99
2018-09-04T07:16:58.181Z,99.99
2018-09-04T07:18:08.422Z,99.99
2018-09-04T07:19:18.270Z,99.99
2018-09-04T07:20:27.899Z,99.99
2018-09-04T07:21:38.029Z,99.99
2018-09-04T07:22:48.153Z,99.99
2018-09-04T07:23:58.376Z,99.99
2018-09-04T07:25:07.969Z,99.99
2018-09-04T07:26:18.150Z,99.99
2018-09-04T07:27:28.283Z,99.99
2018-09-04T07:28:38.144Z,99.99
2018-09-04T07:29:48.005Z,99.99
2018-09-04T07:30:57.861Z,99.99
2018-09-04T07:32:07.991Z,99.99
2018-09-04T07:33:17.845Z,99.99
2018-09-04T07:34:27.700Z,99.99
2018-09-04T07:35:37.564Z,99.99
2018-09-04T07:36:47.691Z,99.99
2018-09-04T07:37:58.017Z,99.99
2018-09-04T07:39:07.881Z,99.9
2018-09-04T07:40:17.742Z,99.04
2018-09-04T07:41:27.864Z,99.23
2018-09-04T07:42:37.444Z,99.28
2018-09-04T07:43:47.768Z,99.85
2018-09-04T07:44:57.903Z,99.18
2018-09-04T07:46:07.482Z,98.42
2018-09-04T07:47:17.072Z,98.71
2018-09-04T07:48:27.205Z,99.18
2018-09-04T07:49:37.107Z,98.8
2018-09-04T07:50:47.239Z,98.61
2018-09-04T07:51:57.362Z,98.52
2018-09-04T07:53:06.682Z,98.32
2018-09-04T07:54:16.818Z,97.75
2018-09-04T07:55:26.950Z,98.03
2018-09-04T07:56:37.091Z,97.75
2018-09-04T07:57:47.221Z,97.94
2018-09-04T07:58:57.074Z,97.75
2018-09-04T08:00:06.660Z,97.71
2018-09-04T08:01:16.313Z,97.13
2018-09-04T08:02:25.620Z,97.52
2018-09-04T08:03:35.475Z,97.71
2018-09-04T08:04:44.776Z,96.66
2018-09-04T08:05:54.358Z,96.46
2018-09-04T08:07:04.644Z,96.37
2018-09-04T08:08:14.772Z,96.37
2018-09-04T08:09:24.901Z,96.94
2018-09-04T08:10:35.040Z,96.27
2018-09-04T08:11:45.168Z,96.66
2018-09-04T08:12:54.748Z,95.61
2018-09-04T08:14:04.881Z,96.56
2018-09-04T08:15:15.016Z,96.51
2018-09-04T08:16:24.762Z,96.08
2018-09-04T08:17:35.414Z,95.56
2018-09-04T08:18:45.560Z,95.36
2018-09-04T08:19:55.415Z,95.36
2018-09-04T08:21:05.550Z,95.07
2018-09-04T08:22:15.412Z,95.07
2018-09-04T08:23:25.275Z,94.98
2018-09-04T08:24:35.408Z,94.31
2018-09-04T08:25:45.280Z,94.41
2018-09-04T08:26:54.856Z,94.89
2018-09-04T08:28:04.442Z,94.89
2018-09-04T08:29:14.574Z,94.31
2018-09-04T08:30:24.709Z,94.98
2018-09-04T08:31:34.573Z,94.41
2018-09-04T08:32:44.853Z,94.31
2018-09-04T08:33:55.346Z,94.6
2018-09-04T08:35:04.651Z,93.84
2018-09-04T08:36:14.784Z,94.02
2018-09-04T08:37:24.640Z,93.93
2018-09-04T08:38:34.782Z,94.12
2018-09-04T08:39:44.634Z,94.12
2018-09-04T08:40:54.258Z,94.02
2018-09-04T08:42:04.121Z,93.45
2018-09-04T08:43:14.259Z,93.69
2018-09-04T08:44:24.387Z,93.93
2018-09-04T08:45:34.516Z,93.65
2018-09-04T08:46:44.386Z,94.36
2018-09-04T08:47:54.641Z,93.31
2018-09-04T08:49:04.224Z,92.16
2018-09-04T08:50:14.082Z,92.45
2018-09-04T08:51:23.941Z,92.25
2018-09-04T08:52:34.083Z,91.59
2018-09-04T08:53:44.405Z,91.59
2018-09-04T08:54:54.256Z,91.3
2018-09-04T08:56:04.119Z,92.16
2018-09-04T08:57:14.257Z,91.59
2018-09-04T08:58:24.396Z,92.16
2018-09-04T08:59:34.428Z,91.2
2018-09-04T09:00:44.010Z,90.92
2018-09-04T09:01:53.863Z,91.11
2018-09-04T09:03:03.170Z,91.49
2018-09-04T09:04:13.321Z,92.07
2018-09-04T09:05:23.528Z,91.97
2018-09-04T09:06:33.532Z,91.88
2018-09-04T09:07:43.438Z,91.3
2018-09-04T09:08:53.573Z,91.16
2018-09-04T09:10:03.642Z,92.16
2018-09-04T09:11:13.377Z,92.07
2018-09-04T09:12:23.292Z,92.64
2018-09-04T09:13:33.162Z,92.54
2018-09-04T09:14:43.016Z,92.93
2018-09-04T09:15:53.142Z,92.16
2018-09-04T09:17:03.265Z,91.25
2018-09-04T09:18:13.120Z,90.87
2018-09-04T09:19:23.258Z,91.44
2018-09-04T09:20:33.109Z,90.87
2018-09-04T09:21:43.258Z,90.58
2018-09-04T09:22:53.269Z,90.44
2018-09-04T09:24:03.547Z,89.95
2018-09-04T09:25:13.411Z,89.95
2018-09-04T09:26:23.557Z,89.58
2018-09-04T09:27:33.683Z,88.71
2018-09-04T09:28:43.816Z,89
2018-09-04T09:29:53.673Z,88.67
2018-09-04T09:31:03.257Z,89.81
2018-09-04T09:32:13.112Z,89.81
2018-09-04T09:33:23.241Z,89.76
2018-09-04T09:34:32.823Z,88.81
2018-09-04T09:35:43.013Z,89.19
2018-09-04T09:36:53.196Z,89.09
2018-09-04T09:38:03.826Z,89
2018-09-04T09:39:13.966Z,88.52
2018-09-04T09:40:24.250Z,87.85
2018-09-04T09:41:34.380Z,88.04
2018-09-04T09:42:44.510Z,88.18
2018-09-04T09:43:54.419Z,89.04
2018-09-04T09:45:04.009Z,87.41
2018-09-04T09:46:13.871Z,87.41
2018-09-04T09:47:24.005Z,87.61
2018-09-04T09:48:34.145Z,87.23
2018-09-04T09:49:44.270Z,87.8
2018-09-04T09:50:54.242Z,86.74
2018-09-04T09:52:04.102Z,86.74
2018-09-04T09:53:14.409Z,87.47
2018-09-04T09:54:24.929Z,87.66
2018-09-04T09:55:34.788Z,87.23
2018-09-04T09:56:45.064Z,88.33
2018-09-04T09:57:55.235Z,88.23
2018-09-04T09:59:05.461Z,88.62
2018-09-04T10:00:15.446Z,87.7
2018-09-04T10:01:25.445Z,87.99
2018-09-04T10:02:35.527Z,87.51
2018-09-04T10:03:44.830Z,87.41
2018-09-04T10:04:54.772Z,87.47
2018-09-04T10:06:04.903Z,86.55
2018-09-04T10:07:15.035Z,87.03
2018-09-04T10:08:24.724Z,86.41
2018-09-04T10:09:38.562Z,86.13
2018-09-04T10:10:48.568Z,87.03
2018-09-04T10:11:58.728Z,87.32
2018-09-04T10:13:08.312Z,86.36
2018-09-04T10:14:18.448Z,86.46
2018-09-04T10:15:28.580Z,86.55
2018-09-04T10:16:38.720Z,86.46
2018-09-04T10:17:48.580Z,86.36
2018-09-04T10:18:58.709Z,86.27
2018-09-04T10:20:08.564Z,84.92
2018-09-04T10:21:18.563Z,84.35
2018-09-04T10:22:28.646Z,85.21
2018-09-04T10:23:38.780Z,86.21
2018-09-04T10:24:48.356Z,84.97
2018-09-04T10:25:57.666Z,85.54
2018-09-04T10:27:07.519Z,84.68
2018-09-04T10:28:17.104Z,84.88
2018-09-04T10:29:26.683Z,83.63
2018-09-04T10:30:36.268Z,84.72
2018-09-04T10:31:46.398Z,84.82
2018-09-04T10:32:56.261Z,84.15
2018-09-04T10:34:06.395Z,83.09
2018-09-04T10:35:15.699Z,83.61
2018-09-04T10:36:26.109Z,83.14
2018-09-04T10:37:36.324Z,82.46
2018-09-04T10:38:46.184Z,81.7
2018-09-04T10:39:56.313Z,81.31
2018-09-04T10:41:06.213Z,81.51
2018-09-04T10:42:16.343Z,81.54
2018-09-04T10:43:26.197Z,81.35
2018-09-04T10:44:35.662Z,80.97
2018-09-04T10:45:45.796Z,81.26
2018-09-04T10:46:55.928Z,80.4
2018-09-04T10:48:05.508Z,79.63
2018-09-04T10:49:15.631Z,79.76
2018-09-04T10:50:25.213Z,79.67
2018-09-04T10:51:35.349Z,79.86
2018-09-04T10:52:45.203Z,79.67
2018-09-04T10:53:55.067Z,79.96
2018-09-04T10:55:04.375Z,79.67
2018-09-04T10:56:14.520Z,79.09
2018-09-04T10:57:24.657Z,78.42
2018-09-04T10:58:34.836Z,78.65
2018-09-04T10:59:44.143Z,78.65
2018-09-04T11:00:54.000Z,78.45
2018-09-04T11:02:04.140Z,77.5
2018-09-04T11:03:14.134Z,77.69
2018-09-04T11:04:24.279Z,77.78
2018-09-04T11:05:34.417Z,78.08
2018-09-04T11:06:44.281Z,77.63
2018-09-04T11:07:54.417Z,77.34
2018-09-04T11:09:04.044Z,77.34
2018-09-04T11:10:13.789Z,77.73
2018-09-04T11:11:23.919Z,76.48
2018-09-04T11:12:33.776Z,75.94
2018-09-04T11:13:43.904Z,75.07
2018-09-04T11:14:53.757Z,73.47
2018-09-04T11:16:03.340Z,73.99
2018-09-04T11:17:13.203Z,72.49
2018-09-04T11:18:23.338Z,71.6
2018-09-04T11:19:33.208Z,69.87
2018-09-04T11:20:43.347Z,69.42
2018-09-04T11:21:53.486Z,68.43
2018-09-04T11:23:03.355Z,67.49
2018-09-04T11:24:13.221Z,66.94
2018-09-04T11:25:22.803Z,64.76
2018-09-04T11:26:32.397Z,64.4
2018-09-04T11:27:42.267Z,61.15
2018-09-04T11:28:51.858Z,62.59
2018-09-04T11:30:01.715Z,61.59
2018-09-04T11:31:11.915Z,61.01
2018-09-04T11:32:21.787Z,59.69
2018-09-04T11:33:31.655Z,59.52
2018-09-04T11:34:41.253Z,57.12
2018-09-04T11:35:51.398Z,56.25
2018-09-04T11:37:01.581Z,55.6
2018-09-04T11:38:11.189Z,55.63
2018-09-04T11:39:21.331Z,55.14
2018-09-04T11:40:31.600Z,53.91
2018-09-04T11:41:42.082Z,54.13
2018-09-04T11:42:51.737Z,54.05
2018-09-04T11:44:01.880Z,53.3
2018-09-04T11:45:11.755Z,51.67
2018-09-04T11:46:21.359Z,51.58
2018-09-04T11:47:31.510Z,49.56
2018-09-04T11:48:41.572Z,49.39
2018-09-04T11:49:51.174Z,48.93
2018-09-04T11:51:01.039Z,47.17
2018-09-04T11:52:10.905Z,47.39
2018-09-04T11:53:20.293Z,46.14
2018-09-04T11:54:30.492Z,44.09
2018-09-04T11:55:40.356Z,45
2018-09-04T11:56:50.225Z,43.53
2018-09-04T11:58:00.369Z,44.12
2018-09-04T11:59:10.510Z,44.31
2018-09-04T12:00:20.431Z,43.55
2018-09-04T12:01:30.307Z,43.46
2018-09-04T12:02:40.450Z,43.65
2018-09-04T12:03:50.047Z,42.89
2018-09-04T12:04:59.923Z,42.13
2018-09-04T12:06:09.796Z,42.4
2018-09-04T12:07:19.948Z,42.69
2018-09-04T12:08:29.820Z,40.17
2018-09-04T12:09:39.416Z,39.98
2018-09-04T12:10:49.556Z,40.39
2018-09-04T12:11:59.476Z,41.07
2018-09-04T12:13:09.419Z,39.04
2018-09-04T12:14:19.870Z,39.04
2018-09-04T12:15:29.479Z,38.06
2018-09-04T12:16:39.350Z,38.84
2018-09-04T12:17:48.946Z,38.57
2018-09-04T12:18:59.159Z,38.96
2018-09-04T12:20:09.166Z,37.02
2018-09-04T12:21:19.495Z,35.86
2018-09-04T12:22:29.898Z,36.72
2018-09-04T12:23:39.547Z,35.76
2018-09-04T12:24:49.779Z,36.82
2018-09-04T12:26:00.282Z,35.35
2018-09-04T12:27:10.557Z,36.92
2018-09-04T12:28:21.035Z,36.72
2018-09-04T12:29:31.233Z,36.53
2018-09-04T12:30:41.101Z,36.63
2018-09-04T12:31:51.244Z,37.52
2018-09-04T12:33:01.120Z,36.76
2018-09-04T12:34:10.742Z,37.07
2018-09-04T12:35:20.939Z,36.58
2018-09-04T12:36:30.875Z,36.32
2018-09-04T12:37:40.995Z,36.22
2018-09-04T12:38:50.586Z,34.58
2018-09-04T12:40:00.460Z,34.49
2018-09-04T12:41:09.830Z,32.53
2018-09-04T12:42:19.175Z,34.28
2018-09-04T12:43:28.906Z,33.31
2018-09-04T12:44:38.503Z,34.1
2018-09-04T12:45:48.097Z,34.3
2018-09-04T12:46:58.046Z,33.8
2018-09-04T12:48:08.396Z,33.23
2018-09-04T12:49:19.230Z,33.91
2018-09-04T12:50:28.825Z,32.54
2018-09-04T12:51:38.422Z,32.82
2018-09-04T12:52:48.624Z,32.33
2018-09-04T12:53:58.218Z,32.05
2018-09-04T12:55:07.813Z,32.54
2018-09-04T12:56:17.408Z,32.45
2018-09-04T12:57:27.551Z,33.43
2018-09-04T12:58:37.743Z,32.76
2018-09-04T12:59:47.709Z,32.26
2018-09-04T13:00:57.902Z,31.9
2018-09-04T13:02:07.506Z,31.7
2018-09-04T13:03:17.105Z,32.18
2018-09-04T13:04:26.988Z,32
2018-09-04T13:05:36.865Z,31.32
2018-09-04T13:06:46.732Z,32.29
2018-09-04T13:07:56.600Z,31.52
2018-09-04T13:09:06.703Z,31.93
2018-09-04T13:10:17.209Z,30.55
2018-09-04T13:11:27.088Z,30.48
2018-09-04T13:12:37.235Z,30.09
2018-09-04T13:13:47.431Z,30.79
2018-09-04T13:14:57.302Z,29.91
2018-09-04T13:16:06.998Z,29.52
2018-09-04T13:17:17.311Z,29.41
2018-09-04T13:18:27.180Z,29.91
2018-09-04T13:19:36.779Z,29.32
2018-09-04T13:20:46.374Z,28.92
2018-09-04T13:21:56.673Z,29.2
2018-09-04T13:23:07.347Z,29.39
2018-09-04T13:24:17.220Z,28.41
2018-09-04T13:25:27.097Z,29.58
2018-09-04T13:26:36.973Z,29.78
2018-09-04T13:27:47.122Z,28.8
2018-09-04T13:28:56.989Z,28.8
2018-09-04T13:30:06.867Z,29.57
2018-09-04T13:31:17.013Z,29.37
2018-09-04T13:32:26.607Z,28.88
2018-09-04T13:33:36.821Z,28.88
2018-09-04T13:34:46.695Z,29.83
2018-09-04T13:35:56.840Z,28.86
2018-09-04T13:37:06.180Z,29.46
2018-09-04T13:38:15.775Z,29.46
2018-09-04T13:39:25.984Z,29.66
2018-09-04T13:40:36.127Z,28.27
2018-09-04T13:41:46.000Z,29.25
2018-09-04T13:42:55.879Z,29.76
2018-09-04T13:44:06.028Z,28.88
2018-09-04T13:45:15.967Z,28.48
2018-09-04T13:46:25.292Z,29.25
2018-09-04T13:47:35.438Z,28.37
2018-09-04T13:48:45.326Z,28.37
2018-09-04T13:49:55.194Z,29.44
2018-09-04T13:51:05.334Z,29.83
2018-09-04T13:52:15.482Z,28.55
2018-09-04T13:53:25.624Z,28.34
2018-09-04T13:54:35.775Z,28.82
2018-09-04T13:55:45.371Z,29.39
2018-09-04T13:56:55.021Z,29.11
2018-09-04T13:58:04.998Z,30.08
2018-09-04T13:59:15.136Z,31.32
2018-09-04T14:00:25.292Z,32.07
2018-09-04T14:01:35.435Z,32.43
2018-09-04T14:02:45.580Z,33.29
2018-09-04T14:03:55.718Z,33.38
2018-09-04T14:05:05.035Z,34.13
2018-09-04T14:06:15.181Z,34.7
2018-09-04T14:07:25.058Z,35.46
2018-09-04T14:08:35.204Z,35.72
2018-09-04T14:09:45.342Z,35.45
2018-09-04T14:10:55.483Z,34.97
2018-09-04T14:12:05.670Z,34.99
2018-09-04T14:13:15.821Z,34.6
2018-09-04T14:14:26.016Z,33.95
2018-09-04T14:15:35.885Z,33.65
2018-09-04T14:16:45.800Z,33.58
2018-09-04T14:17:56.226Z,32.9
2018-09-04T14:19:06.095Z,32.9
2018-09-04T14:20:16.291Z,33.1
2018-09-04T14:21:26.161Z,33.1
2018-09-04T14:22:36.338Z,33.31
2018-09-04T14:23:46.531Z,32.54
2018-09-04T14:24:56.678Z,31.48
2018-09-04T14:26:06.593Z,31.48
2018-09-04T14:27:16.835Z,31.68
2018-09-04T14:28:43.665Z,31.22
2018-09-04T14:30:18.529Z,31.02
2018-09-04T14:31:28.676Z,30.24
2018-09-04T14:32:38.547Z,30.93
2018-09-04T14:33:48.426Z,30.45
2018-09-04T14:34:58.589Z,29.58
2018-09-04T14:36:08.637Z,30.17
2018-09-04T14:37:19.193Z,30.07
2018-09-04T14:38:28.688Z,29.97
2018-09-04T14:39:38.833Z,29.89
2018-09-04T14:40:58.836Z,29.49
2018-09-04T14:42:09.045Z,29.31
2018-09-04T14:43:19.152Z,29.33
2018-09-04T14:44:29.305Z,28.64
2018-09-04T14:45:39.451Z,29.21
2018-09-04T14:46:49.621Z,28.75
2018-09-04T14:47:59.770Z,28.75
2018-09-04T14:49:09.605Z,28.66
2018-09-04T14:50:19.536Z,27.1
2018-09-04T14:51:29.677Z,27.79
2018-09-04T14:52:39.551Z,27.79
2018-09-04T14:53:49.435Z,27.41
2018-09-04T14:54:59.580Z,27.42
2018-09-04T14:56:09.185Z,26.24
2018-09-04T14:57:19.060Z,26.73
2018-09-04T14:58:29.204Z,27.13
2018-09-04T14:59:39.075Z,25.74
2018-09-04T15:00:49.241Z,25.83
2018-09-04T15:01:59.119Z,26.64
2018-09-04T15:03:08.984Z,26.34
2018-09-04T15:04:18.578Z,25.86